Главная страница
METAR-TAF:

METAR-TAF

Аэропорты :

Sussex Airport

Sussex, Нью-Джерси, США

широта: 41-12-01N, долгота: 074-37-23W, высота над уровнем моря: 128 м

Текущие метеонаблюдения

Эта сводка был подготовлена 22 минут назад, в 12:53 UTC
Штиль
Температура -12°C
Влажность 92%
Давление 1033 hPa
Видимость: 16.1 км
ясное небо

METAR: KFWN 081253Z AUTO 00000KT 10SM CLR M12/M13 A3051 RMK AO2 UPB30E40 SLP338 P0000 T11171133

Время: 08:15 (13:15 UTC)


TAF: отсутствует

Метеонаблюдения и прогнозы для более 4000 аэропортов (сводки METAR и TAF).

Имеющиеся станции представлены на карте желтыми и красными точками.

Чтобы увидеть название станции, наведите на нее мышь.

Затем щелкните, чтобы увидеть метеонаблюдения и метеопрогнозы.

Управление картой: чтобы увеличить масштаб, щелкните зеленые кнопки с черным крестиком; чтобы уменьшить масштаб, щелкните зеленую кнопку с тире; для просмотра соседних карт щелкайте зеленые стрелки.


METAR-TAF: